Погода Речки 2на 2 недели

Могилёвская область, Белоруссия

22 мая-04 июня
  • 22мая
    Сегодня
    +12°
    +24°
    Небольшая облачность, ливень
    ВремяПогодаТемператураВлажностьДавлениеВетер, м/сВероятность осадков
    00:00Облачно с прояснениями+15°C83 %751 мм2.7 м/с2 %
    03:00Облачно с прояснениями+13°C87 %751 мм2.7 м/с3 %
    06:00Облачно с прояснениями+13°C89 %752 мм2.2 м/с6 %
    09:00Практически безоблачно+19°C74 %752 мм2.0 м/с3 %
    12:00Небольшая облачность, возможен дождь с грозой+23°C59 %752 мм2.6 м/с11 %
    15:00Небольшая облачность, ливень+21°C80 %752 мм1.3 м/с40 %
    18:00Пасмурно, дожди с грозами+20°C83 %752 мм2.6 м/с56 %
    21:00Облачно с прояснениями+17°C90 %752 мм2.9 м/с15 %
  • 23мая
    Четверг
    +11°
    +23°
    Практически безоблачно
    ВремяПогодаТемператураВлажностьДавлениеВетер, м/сВероятность осадков
    00:00Небольшая облачность+15°C93 %753 мм2.9 м/с2 %
    03:00Ясно и безоблачно+14°C95 %753 мм3.2 м/с2 %
    06:00Ясно и безоблачно+13°C95 %754 мм4.3 м/с1 %
    09:00Ясно и безоблачно+17°C73 %755 мм4.8 м/с2 %
    12:00Ясно и безоблачно+21°C61 %755 мм5.8 м/с14 %
    15:00Практически безоблачно+22°C50 %755 мм5.8 м/с19 %
    18:00Ясно и безоблачно+22°C53 %755 мм5.9 м/с22 %
    21:00Ясно и безоблачно+18°C60 %756 мм4.7 м/с3 %
  • 24мая
    Пятница
    +10°
    +22°
    Ясно и безоблачно
    ВремяПогодаТемператураВлажностьДавлениеВетер, м/сВероятность осадков
    00:00Ясно и безоблачно+15°C63 %757 мм5.4 м/с2 %
    03:00Ясно и безоблачно+13°C61 %758 мм4.9 м/с2 %
    06:00Практически безоблачно+11°C63 %759 мм4.8 м/с2 %
    09:00Ясно и безоблачно+16°C58 %759 мм4.8 м/с2 %
    12:00Ясно и безоблачно+20°C50 %759 мм4.9 м/с2 %
    15:00Ясно и безоблачно+22°C45 %759 мм4.7 м/с3 %
    18:00Ясно и безоблачно+21°C46 %758 мм4.5 м/с3 %
    21:00Ясно и безоблачно+17°C61 %758 мм3.2 м/с3 %
  • 25мая
    Суббота
    +9°
    +24°
    Ясно и безоблачно
    ВремяПогодаТемператураВлажностьДавлениеВетер, м/сВероятность осадков
    00:00Ясно и безоблачно+14°C65 %759 мм3.5 м/с2 %
    03:00Ясно и безоблачно+12°C70 %758 мм3.3 м/с2 %
    06:00Ясно и безоблачно+11°C72 %758 мм3.1 м/с2 %
    09:00Ясно и безоблачно+17°C59 %758 мм3.0 м/с2 %
    12:00Ясно и безоблачно+21°C51 %758 мм2.9 м/с4 %
    15:00Ясно и безоблачно+23°C44 %757 мм3.1 м/с4 %
    18:00Практически безоблачно+23°C46 %756 мм2.7 м/с5 %
    21:00Ясно и безоблачно+17°C67 %756 мм2.4 м/с2 %
  • 26мая
    Воскресенье
    +12°
    +24°
    Ясно и безоблачно
    ВремяПогодаТемператураВлажностьДавлениеВетер, м/сВероятность осадков
    00:00Ясно и безоблачно+15°C68 %756 мм2.4 м/с3 %
    03:00Ясно и безоблачно+11°C80 %756 мм2.8 м/с4 %
    06:00Ясно и безоблачно+12°C77 %756 мм1.3 м/с4 %
    09:00Ясно и безоблачно+18°C59 %756 мм0.4 м/с7 %
    12:00Ясно и безоблачно+22°C43 %757 мм2.0 м/с4 %
    15:00Ясно и безоблачно+23°C43 %756 мм1.1 м/с11 %
    18:00Ясно и безоблачно+23°C43 %755 мм0.7 м/с6 %
    21:00Практически безоблачно+17°C60 %755 мм2.4 м/с6 %
Мы используем cookies
Соглашаюсь